EW8926 Weather Reports


Display with metric or nautical units.
time (UTC)temp
F
wind
direction
speed
MPH
gust
MPH
rain 1hr
in
rain 24hr
in
rain mn
in
humidity
%
barometer
mb
20200403084613 49 294 2.0 5.0 0.00 0.00 0.00 70 1015.0
20200403081613 47 306 2.0 5.0 0.00 0.00 0.00 74 1015.0
20200403080613 46 177 1.0 6.0 0.00 0.00 0.00 73 1014.8
20200403073613 44 310 2.0 5.0 0.00 0.00 0.00 75 1014.6
20200403071613 43 311 1.0 2.0 0.00 0.00 0.00 78 1014.5
20200403070614 42 310 0.0 2.0 0.00 0.00 0.00 78 1014.4
20200403065603 41 154 0.0 2.0 0.00 0.00 0.00 83 1014.4
20200403064613 39 154 0.0 2.0 0.00 0.00 0.00 86 1014.3
20200403063614 38 154 0.0 2.0 0.00 0.00 0.00 88 1014.2
20200403061613 35 154 0.0 2.0 0.00 0.00 0.00 91 1014.1
20200403060612 35 154 0.0 2.0 0.00 0.00 0.00 91 1013.9
20200403060107 34 154 0.0 2.0 0.00 0.00 0.00 92 1013.9
20200403054613 34 154 0.0 0.0 0.00 0.00 0.00 92 1013.7
20200403053614 33 154 0.0 2.0 0.00 0.00 0.00 92 1013.5
20200403051612 33 154 0.0 2.0 0.00 0.00 0.00 90 1013.3
20200403050614 34 154 0.0 2.0 0.00 0.00 0.00 89 1013.1
20200403044614 34 154 0.0 2.0 0.00 0.00 0.00 88 1013.0
20200403044115 34 154 0.0 2.0 0.00 0.00 0.00 89 1013.0
20200403043614 34 154 0.0 2.0 0.00 0.00 0.00 89 1013.0
20200403041612 34 154 0.0 1.0 0.00 0.00 0.00 89 1012.9
20200403040613 34 154 0.0 2.0 0.00 0.00 0.00 89 1012.9
20200403034613 34 154 1.0 2.0 0.00 0.00 0.00 89 1012.8
20200403033614 34 154 0.0 3.0 0.00 0.00 0.00 90 1012.8
20200403032614 34 156 0.0 2.0 0.00 0.00 0.00 89 1012.8
20200403031613 34 156 0.0 2.0 0.00 0.00 0.00 89 1012.8
20200403030612 35 156 0.0 2.0 0.00 0.00 0.00 89 1012.8
20200403025612 35 156 0.0 2.0 0.00 0.00 0.00 88 1012.8
20200403024613 35 156 1.0 2.0 0.00 0.00 0.00 89 1012.7
20200403023613 35 156 2.0 2.0 0.00 0.00 0.00 89 1012.6
20200403022613 35 156 1.0 2.0 0.00 0.00 0.00 89 1012.6
20200403021613 35 156 1.0 2.0 0.00 0.00 0.00 89 1012.5
20200403020613 35 156 0.0 3.0 0.00 0.00 0.00 89 1012.6
20200403015613 36 158 0.0 0.0 0.00 0.00 0.00 88 1012.6
20200403014613 36 158 0.0 0.0 0.00 0.00 0.00 88 1012.6
20200403013613 36 158 0.0 0.0 0.00 0.00 0.00 87 1012.7
20200403011615 37 158 1.0 2.0 0.00 0.00 0.00 86 1012.7
20200403010614 37 158 0.0 2.0 0.00 0.00 0.00 86 1012.8
20200403005612 37 158 0.0 2.0 0.00 0.00 0.00 86 1012.8
20200403004613 37 158 0.0 0.0 0.00 0.00 0.00 86 1012.7
20200403003614 37 158 0.0 1.0 0.00 0.00 0.00 86 1012.8
20200403002612 37 158 0.0 0.0 0.00 0.00 0.00 86 1012.8
20200403001613 37 158 0.0 0.0 0.00 0.00 0.00 85 1012.8
20200403001114 38 158 0.0 1.0 0.00 0.00 0.00 85 1012.8
20200403000614 38 158 0.0 0.0 0.00 0.00 0.00 85 1012.8
20200402235613 38 158 0.0 1.0 0.00 0.00 0.00 84 1012.8
20200402234612 39 158 0.0 0.0 0.00 0.00 0.00 84 1012.9
20200402233613 39 158 0.0 1.0 0.00 0.00 0.00 83 1012.8
20200402232613 39 158 0.0 0.0 0.00 0.00 0.00 82 1012.8
20200402231613 40 158 0.0 1.0 0.00 0.00 0.00 81 1012.8
20200402230613 40 158 0.0 3.0 0.00 0.00 0.00 81 1012.9
20200402221103 41 175 2.0 5.0 0.00 0.00 0.00 79 1012.9
20200402213615 41 158 2.0 3.0 0.00 0.00 0.00 76 1013.0
20200402211615 41 153 2.0 5.0 0.00 0.00 0.00 76 1012.9
20200402210614 41 157 2.0 5.0 0.00 0.00 0.00 76 1012.9
20200402204614 42 148 2.0 5.0 0.00 0.00 0.00 76 1012.8
20200402203615 42 158 2.0 3.0 0.00 0.00 0.00 75 1012.8
20200402201614 42 154 0.0 3.0 0.00 0.00 0.00 74 1012.8
20200402195114 44 130 0.0 2.0 0.00 0.00 0.00 72 1012.6
20200402194614 44 130 0.0 2.0 0.00 0.00 0.00 71 1012.6
20200402193614 44 315 0.0 2.0 0.00 0.00 0.00 72 1012.5
20200402192615 44 315 0.0 2.0 0.00 0.00 0.00 72 1012.5
20200402191613 44 315 0.0 2.0 0.00 0.00 0.00 72 1012.4
20200402185604 46 315 0.0 2.0 0.00 0.00 0.00 69 1012.4
20200402184613 47 315 0.0 0.0 0.00 0.00 0.00 67 1012.3
20200402183614 47 315 0.0 0.0 0.00 0.00 0.00 62 1012.2
20200402181613 49 315 0.0 0.0 0.00 0.00 0.00 58 1012.2
20200402180614 49 315 0.0 0.0 0.00 0.00 0.00 56 1012.1
20200402174615 51 315 0.0 0.0 0.00 0.00 0.00 54 1012.1
20200402173615 51 315 0.0 2.0 0.00 0.00 0.00 53 1012.1
20200402172114 52 315 0.0 2.0 0.00 0.00 0.00 53 1012.2
20200402171612 52 315 0.0 2.0 0.00 0.00 0.00 54 1012.2
20200402171114 52 315 0.0 2.0 0.00 0.00 0.00 54 1012.2
20200402170611 52 315 0.0 2.0 0.00 0.00 0.00 53 1012.1
20200402165611 53 315 0.0 2.0 0.00 0.00 0.00 51 1012.1
20200402165115 53 315 0.0 1.0 0.00 0.00 0.00 52 1012.1
20200402164611 53 315 0.0 2.0 0.00 0.00 0.00 52 1012.1
20200402164114 53 315 0.0 3.0 0.00 0.00 0.00 52 1012.1
20200402163612 53 344 1.0 3.0 0.00 0.00 0.00 51 1012.2
20200402162612 54 318 1.0 3.0 0.00 0.00 0.00 51 1012.2
20200402162114 54 338 1.0 3.0 0.00 0.00 0.00 50 1012.3
20200402161611 54 301 2.0 3.0 0.00 0.00 0.00 51 1012.3
20200402160613 55 296 2.0 5.0 0.00 0.00 0.00 51 1012.3
20200402155613 56 310 0.0 6.0 0.00 0.00 0.00 48 1012.3
20200402154612 56 308 2.0 2.0 0.00 0.00 0.00 50 1012.3
20200402154113 56 307 2.0 3.0 0.00 0.00 0.00 48 1012.3
20200402153612 56 308 2.0 5.0 0.00 0.00 0.00 48 1012.5
20200402152613 55 335 2.0 5.0 0.00 0.00 0.00 50 1012.5
20200402151612 55 329 2.0 5.0 0.00 0.00 0.00 48 1012.7
20200402151114 55 288 2.0 5.0 0.00 0.00 0.00 49 1012.7
20200402150610 56 252 2.0 6.0 0.00 0.00 0.00 48 1012.9
20200402145611 56 303 2.0 5.0 0.00 0.00 0.00 49 1012.9
20200402144612 56 326 2.0 6.0 0.00 0.00 0.00 48 1013.1
20200402144113 57 311 2.0 7.0 0.00 0.00 0.00 48 1013.1
20200402143613 57 329 2.0 5.0 0.00 0.00 0.00 48 1013.3
20200402142613 56 93 2.0 5.0 0.00 0.00 0.00 49 1013.3
20200402142114 56 348 2.0 5.0 0.00 0.00 0.00 47 1013.4
20200402141611 56 353 2.0 5.0 0.00 0.00 0.00 49 1013.4
20200402141114 56 25 2.0 5.0 0.00 0.00 0.00 50 1013.4
20200402140611 55 1 2.0 3.0 0.00 0.00 0.00 48 1013.5
20200402135611 55 349 2.0 7.0 0.00 0.00 0.00 48 1013.5
20200402135114 55 282 2.0 7.0 0.00 0.00 0.00 46 1013.7
20200402134611 56 306 2.0 6.0 0.00 0.00 0.00 47 1013.7
20200402134113 56 192 2.0 6.0 0.00 0.00 0.00 47 1013.7
20200402132615 54 344 2.0 5.0 0.00 0.00 0.00 51 1013.9
20200402132114 54 338 2.0 5.0 0.00 0.00 0.00 48 1014.1
20200402131612 55 307 2.0 5.0 0.00 0.00 0.00 47 1014.1
20200402131114 55 324 2.0 7.0 0.00 0.00 0.00 48 1014.1
20200402130613 55 335 2.0 6.0 0.00 0.00 0.00 52 1014.2
20200402125612 54 348 2.0 5.0 0.00 0.00 0.00 51 1014.2
20200402125114 54 49 2.0 5.0 0.00 0.00 0.00 51 1014.4
20200402124612 54 342 2.0 8.0 0.00 0.00 0.00 52 1014.4
20200402124113 54 287 2.0 6.0 0.00 0.00 0.00 49 1014.4
20200402123611 54 137 2.0 5.0 0.00 0.00 0.00 52 1014.7
20200402123115 54 307 2.0 6.0 0.00 0.00 0.00 49 1014.7
20200402122614 54 316 2.0 6.0 0.00 0.00 0.00 53 1014.7
20200402122114 54 329 2.0 6.0 0.00 0.00 0.00 48 1015.0
20200402121612 54 346 2.0 5.0 0.00 0.00 0.00 50 1015.0
20200402121114 54 358 2.0 5.0 0.00 0.00 0.00 48 1015.0
20200402120615 54 44 2.0 6.0 0.00 0.00 0.00 49 1015.2
20200402115611 53 343 3.0 5.0 0.00 0.00 0.00 52 1015.2
20200402115113 53 313 3.0 6.0 0.00 0.00 0.00 50 1015.3
20200402114612 53 319 2.0 6.0 0.00 0.00 0.00 51 1015.3
20200402114113 54 316 2.0 6.0 0.00 0.00 0.00 51 1015.3
20200402113612 53 329 2.0 5.0 0.00 0.00 0.00 51 1015.5
20200402112615 53 308 2.0 6.0 0.00 0.00 0.00 52 1015.5
20200402112114 52 358 2.0 5.0 0.00 0.00 0.00 52 1015.7
20200402111612 52 27 2.0 6.0 0.00 0.00 0.00 53 1015.7
20200402111114 52 356 2.0 5.0 0.00 0.00 0.00 53 1015.7
20200402110611 52 318 2.0 6.0 0.00 0.00 0.00 52 1015.9
20200402105614 51 27 2.0 5.0 0.00 0.00 0.00 56 1015.9
20200402105113 51 317 2.0 6.0 0.00 0.00 0.00 53 1016.0
20200402104612 52 303 2.0 6.0 0.00 0.00 0.00 54 1016.0
20200402104113 52 298 2.0 6.0 0.00 0.00 0.00 54 1016.0
20200402103603 52 23 2.0 5.0 0.00 0.00 0.00 59 1016.2
20200402102604 51 296 2.0 8.0 0.00 0.00 0.00 57 1016.2
20200402100605 50 318 2.0 7.0 0.00 0.00 0.00 59 1016.3
20200402094615 49 344 2.0 6.0 0.00 0.00 0.00 60 1016.3
20200402093111 49 294 2.0 6.0 0.00 0.00 0.00 60 1016.3